Terminal Aerodrome Forecast
Issued by NWS

Home | Current Version | Previous Version | Text Only | Print | Product List | Glossary On
Versions: 1 2 3 4 5 6 7 8 9 10 11 12 13 14
921
FTUS43 KBIS 282334
TAFJMS
TAF
KJMS 282334Z 2900/2924 18007KT P6SM FEW200
     FM290800 32007KT P6SM SCT250
     FM291500 36011G18KT P6SM SCT250=

USA.gov is the U.S. government's official web portal to all federal, state and local government web resources and services.